sensor_id;sensor_type;location;lat;lon;timestamp;P1;durP1;ratioP1;P2;durP2;ratioP2
39896;SDS011;25567;48.276;14.242;2022-08-11T00:01:57;5.95;;;3.17;;
39896;SDS011;25567;48.276;14.242;2022-08-11T00:04:26;8.70;;;3.63;;
39896;SDS011;25567;48.276;14.242;2022-08-11T00:07:01;6.03;;;3.33;;
39896;SDS011;25567;48.276;14.242;2022-08-11T00:09:30;6.25;;;3.58;;
39896;SDS011;25567;48.276;14.242;2022-08-11T00:12:05;10.95;;;3.35;;
39896;SDS011;25567;48.276;14.242;2022-08-11T00:14:39;6.18;;;3.03;;
39896;SDS011;25567;48.276;14.242;2022-08-11T00:17:09;5.03;;;2.90;;
39896;SDS011;25567;48.276;14.242;2022-08-11T00:19:39;7.07;;;3.35;;
39896;SDS011;25567;48.276;14.242;2022-08-11T00:22:29;6.03;;;3.50;;
39896;SDS011;25567;48.276;14.242;2022-08-11T00:24:57;7.47;;;3.53;;
39896;SDS011;25567;48.276;14.242;2022-08-11T00:27:34;7.60;;;3.38;;
39896;SDS011;25567;48.276;14.242;2022-08-11T00:30:03;7.57;;;2.85;;
39896;SDS011;25567;48.276;14.242;2022-08-11T00:32:31;8.32;;;3.60;;
39896;SDS011;25567;48.276;14.242;2022-08-11T00:34:59;5.82;;;3.50;;
39896;SDS011;25567;48.276;14.242;2022-08-11T00:37:47;11.40;;;3.40;;
39896;SDS011;25567;48.276;14.242;2022-08-11T00:40:22;5.50;;;2.75;;
39896;SDS011;25567;48.276;14.242;2022-08-11T00:48:45;9.30;;;3.58;;
39896;SDS011;25567;48.276;14.242;2022-08-11T00:51:35;8.32;;;3.38;;
39896;SDS011;25567;48.276;14.242;2022-08-11T01:05:15;9.30;;;4.28;;
39896;SDS011;25567;48.276;14.242;2022-08-11T01:08:13;9.13;;;3.42;;
39896;SDS011;25567;48.276;14.242;2022-08-11T01:14:38;6.60;;;3.00;;
39896;SDS011;25567;48.276;14.242;2022-08-11T01:17:19;7.40;;;3.30;;
39896;SDS011;25567;48.276;14.242;2022-08-11T01:37:11;4.57;;;2.88;;
39896;SDS011;25567;48.276;14.242;2022-08-11T01:40:22;8.43;;;3.13;;
39896;SDS011;25567;48.276;14.242;2022-08-11T01:48:05;7.78;;;3.45;;
39896;SDS011;25567;48.276;14.242;2022-08-11T01:53:15;5.18;;;2.80;;
39896;SDS011;25567;48.276;14.242;2022-08-11T02:01:47;6.15;;;3.20;;
39896;SDS011;25567;48.276;14.242;2022-08-11T02:04:27;4.90;;;3.00;;
39896;SDS011;25567;48.276;14.242;2022-08-11T02:07:16;6.10;;;3.15;;
39896;SDS011;25567;48.276;14.242;2022-08-11T02:09:57;5.47;;;3.28;;
39896;SDS011;25567;48.276;14.242;2022-08-11T02:13:11;8.05;;;3.47;;
39896;SDS011;25567;48.276;14.242;2022-08-11T02:16:02;6.63;;;3.28;;
39896;SDS011;25567;48.276;14.242;2022-08-11T02:18:40;7.65;;;3.38;;
39896;SDS011;25567;48.276;14.242;2022-08-11T02:21:26;8.75;;;3.58;;
39896;SDS011;25567;48.276;14.242;2022-08-11T02:24:18;5.45;;;2.78;;
39896;SDS011;25567;48.276;14.242;2022-08-11T02:26:59;5.85;;;3.40;;
39896;SDS011;25567;48.276;14.242;2022-08-11T02:32:28;6.32;;;3.25;;
39896;SDS011;25567;48.276;14.242;2022-08-11T02:51:24;8.88;;;3.35;;
39896;SDS011;25567;48.276;14.242;2022-08-11T02:59:46;5.80;;;3.10;;
39896;SDS011;25567;48.276;14.242;2022-08-11T03:10:15;8.50;;;3.10;;
39896;SDS011;25567;48.276;14.242;2022-08-11T03:15:48;6.72;;;3.00;;
39896;SDS011;25567;48.276;14.242;2022-08-11T03:18:53;8.43;;;3.30;;
39896;SDS011;25567;48.276;14.242;2022-08-11T03:21:31;9.85;;;3.20;;
39896;SDS011;25567;48.276;14.242;2022-08-11T03:24:38;7.57;;;3.13;;
39896;SDS011;25567;48.276;14.242;2022-08-11T03:27:13;6.47;;;3.03;;
39896;SDS011;25567;48.276;14.242;2022-08-11T03:35:39;6.30;;;3.33;;
39896;SDS011;25567;48.276;14.242;2022-08-11T03:44:09;6.80;;;3.78;;
39896;SDS011;25567;48.276;14.242;2022-08-11T03:55:14;8.35;;;3.70;;
39896;SDS011;25567;48.276;14.242;2022-08-11T03:58:11;6.93;;;3.40;;
39896;SDS011;25567;48.276;14.242;2022-08-11T04:06:47;8.63;;;4.03;;
39896;SDS011;25567;48.276;14.242;2022-08-11T04:18:27;6.75;;;4.05;;
39896;SDS011;25567;48.276;14.242;2022-08-11T04:24:15;10.77;;;4.10;;
39896;SDS011;25567;48.276;14.242;2022-08-11T04:27:11;8.77;;;3.75;;
39896;SDS011;25567;48.276;14.242;2022-08-11T04:30:15;12.20;;;4.68;;
39896;SDS011;25567;48.276;14.242;2022-08-11T04:38:30;10.73;;;3.88;;
39896;SDS011;25567;48.276;14.242;2022-08-11T04:44:45;11.00;;;3.92;;
39896;SDS011;25567;48.276;14.242;2022-08-11T04:51:01;11.43;;;4.30;;
39896;SDS011;25567;48.276;14.242;2022-08-11T04:56:56;9.02;;;4.20;;
39896;SDS011;25567;48.276;14.242;2022-08-11T05:16:59;7.85;;;4.15;;
39896;SDS011;25567;48.276;14.242;2022-08-11T05:19:52;12.98;;;4.50;;
39896;SDS011;25567;48.276;14.242;2022-08-11T05:22:35;12.50;;;4.95;;
39896;SDS011;25567;48.276;14.242;2022-08-11T05:25:22;8.23;;;4.47;;
39896;SDS011;25567;48.276;14.242;2022-08-11T05:31:15;10.52;;;4.43;;
39896;SDS011;25567;48.276;14.242;2022-08-11T05:34:00;8.90;;;3.97;;
39896;SDS011;25567;48.276;14.242;2022-08-11T05:36:49;8.23;;;4.18;;
39896;SDS011;25567;48.276;14.242;2022-08-11T05:39:35;9.70;;;4.35;;
39896;SDS011;25567;48.276;14.242;2022-08-11T05:42:24;9.85;;;4.05;;
39896;SDS011;25567;48.276;14.242;2022-08-11T05:45:10;11.05;;;4.50;;
39896;SDS011;25567;48.276;14.242;2022-08-11T05:48:14;10.40;;;4.50;;
39896;SDS011;25567;48.276;14.242;2022-08-11T05:50:57;10.45;;;4.20;;
39896;SDS011;25567;48.276;14.242;2022-08-11T05:53:43;12.02;;;4.38;;
39896;SDS011;25567;48.276;14.242;2022-08-11T05:56:57;9.23;;;4.10;;
39896;SDS011;25567;48.276;14.242;2022-08-11T05:59:25;13.00;;;4.57;;
39896;SDS011;25567;48.276;14.242;2022-08-11T06:01:59;8.57;;;4.35;;
39896;SDS011;25567;48.276;14.242;2022-08-11T06:04:28;13.23;;;4.72;;
39896;SDS011;25567;48.276;14.242;2022-08-11T06:06:56;10.35;;;4.82;;
39896;SDS011;25567;48.276;14.242;2022-08-11T06:09:26;9.50;;;4.85;;
39896;SDS011;25567;48.276;14.242;2022-08-11T06:11:57;10.30;;;4.20;;
39896;SDS011;25567;48.276;14.242;2022-08-11T06:14:26;8.52;;;4.80;;
39896;SDS011;25567;48.276;14.242;2022-08-11T06:16:55;20.50;;;5.82;;
39896;SDS011;25567;48.276;14.242;2022-08-11T06:19:33;14.10;;;5.18;;
39896;SDS011;25567;48.276;14.242;2022-08-11T06:22:02;10.32;;;5.20;;
39896;SDS011;25567;48.276;14.242;2022-08-11T06:24:30;12.25;;;4.93;;
39896;SDS011;25567;48.276;14.242;2022-08-11T06:26:59;10.23;;;5.90;;
39896;SDS011;25567;48.276;14.242;2022-08-11T06:29:43;11.40;;;4.72;;
39896;SDS011;25567;48.276;14.242;2022-08-11T06:32:20;13.98;;;4.38;;
39896;SDS011;25567;48.276;14.242;2022-08-11T06:37:21;12.60;;;4.22;;
39896;SDS011;25567;48.276;14.242;2022-08-11T06:40:04;11.75;;;5.30;;
39896;SDS011;25567;48.276;14.242;2022-08-11T06:42:37;11.98;;;4.90;;
39896;SDS011;25567;48.276;14.242;2022-08-11T06:48:02;12.10;;;4.47;;
39896;SDS011;25567;48.276;14.242;2022-08-11T06:50:31;12.70;;;4.60;;
39896;SDS011;25567;48.276;14.242;2022-08-11T06:53:16;11.90;;;4.55;;
39896;SDS011;25567;48.276;14.242;2022-08-11T06:55:45;12.10;;;4.22;;
39896;SDS011;25567;48.276;14.242;2022-08-11T06:58:30;16.00;;;4.25;;
39896;SDS011;25567;48.276;14.242;2022-08-11T07:01:26;15.23;;;4.60;;
39896;SDS011;25567;48.276;14.242;2022-08-11T07:04:04;16.80;;;5.18;;
39896;SDS011;25567;48.276;14.242;2022-08-11T07:06:38;21.17;;;4.72;;
39896;SDS011;25567;48.276;14.242;2022-08-11T07:09:51;13.55;;;4.47;;
39896;SDS011;25567;48.276;14.242;2022-08-11T07:12:43;12.07;;;4.95;;
39896;SDS011;25567;48.276;14.242;2022-08-11T07:15:30;22.67;;;6.10;;
39896;SDS011;25567;48.276;14.242;2022-08-11T07:18:34;18.60;;;4.90;;
39896;SDS011;25567;48.276;14.242;2022-08-11T07:24:24;14.48;;;4.53;;
39896;SDS011;25567;48.276;14.242;2022-08-11T07:27:29;12.10;;;4.00;;
39896;SDS011;25567;48.276;14.242;2022-08-11T07:30:16;10.75;;;4.55;;
39896;SDS011;25567;48.276;14.242;2022-08-11T07:32:48;9.43;;;3.70;;
39896;SDS011;25567;48.276;14.242;2022-08-11T07:35:23;11.02;;;3.60;;
39896;SDS011;25567;48.276;14.242;2022-08-11T07:37:58;10.48;;;3.88;;
39896;SDS011;25567;48.276;14.242;2022-08-11T07:40:32;15.07;;;4.35;;
39896;SDS011;25567;48.276;14.242;2022-08-11T07:43:00;6.55;;;3.33;;
39896;SDS011;25567;48.276;14.242;2022-08-11T07:45:29;6.53;;;3.45;;
39896;SDS011;25567;48.276;14.242;2022-08-11T07:48:13;9.27;;;4.07;;
39896;SDS011;25567;48.276;14.242;2022-08-11T07:50:56;8.75;;;3.30;;
39896;SDS011;25567;48.276;14.242;2022-08-11T07:53:40;8.43;;;3.15;;
39896;SDS011;25567;48.276;14.242;2022-08-11T07:56:27;7.07;;;3.50;;
39896;SDS011;25567;48.276;14.242;2022-08-11T07:59:15;6.13;;;3.10;;
39896;SDS011;25567;48.276;14.242;2022-08-11T08:02:18;4.28;;;2.92;;
39896;SDS011;25567;48.276;14.242;2022-08-11T08:05:01;6.03;;;3.20;;
39896;SDS011;25567;48.276;14.242;2022-08-11T08:07:43;8.02;;;2.90;;
39896;SDS011;25567;48.276;14.242;2022-08-11T08:10:25;4.63;;;2.80;;
39896;SDS011;25567;48.276;14.242;2022-08-11T08:13:08;5.53;;;2.67;;
39896;SDS011;25567;48.276;14.242;2022-08-11T08:15:51;8.40;;;3.33;;
39896;SDS011;25567;48.276;14.242;2022-08-11T08:18:35;5.65;;;2.95;;
39896;SDS011;25567;48.276;14.242;2022-08-11T08:21:04;5.97;;;2.70;;
39896;SDS011;25567;48.276;14.242;2022-08-11T08:23:41;5.72;;;2.83;;
39896;SDS011;25567;48.276;14.242;2022-08-11T08:26:11;6.28;;;2.80;;
39896;SDS011;25567;48.276;14.242;2022-08-11T08:28:56;8.57;;;2.80;;
39896;SDS011;25567;48.276;14.242;2022-08-11T08:31:46;6.93;;;3.10;;
39896;SDS011;25567;48.276;14.242;2022-08-11T08:34:14;6.82;;;3.15;;
39896;SDS011;25567;48.276;14.242;2022-08-11T08:36:43;11.45;;;3.33;;
39896;SDS011;25567;48.276;14.242;2022-08-11T08:39:12;5.57;;;3.17;;
39896;SDS011;25567;48.276;14.242;2022-08-11T08:41:40;8.32;;;3.25;;
39896;SDS011;25567;48.276;14.242;2022-08-11T08:44:10;8.07;;;3.15;;
39896;SDS011;25567;48.276;14.242;2022-08-11T08:46:59;5.88;;;2.42;;
39896;SDS011;25567;48.276;14.242;2022-08-11T08:49:33;6.43;;;2.95;;
39896;SDS011;25567;48.276;14.242;2022-08-11T08:52:06;9.48;;;3.13;;
39896;SDS011;25567;48.276;14.242;2022-08-11T08:54:56;6.07;;;3.28;;
39896;SDS011;25567;48.276;14.242;2022-08-11T08:57:27;4.07;;;2.90;;
39896;SDS011;25567;48.276;14.242;2022-08-11T09:00:05;4.45;;;2.58;;
39896;SDS011;25567;48.276;14.242;2022-08-11T09:02:37;5.53;;;2.65;;
39896;SDS011;25567;48.276;14.242;2022-08-11T09:05:05;5.50;;;2.80;;
39896;SDS011;25567;48.276;14.242;2022-08-11T09:07:35;5.25;;;2.70;;
39896;SDS011;25567;48.276;14.242;2022-08-11T09:10:05;4.45;;;2.63;;
39896;SDS011;25567;48.276;14.242;2022-08-11T09:12:33;9.57;;;2.70;;
39896;SDS011;25567;48.276;14.242;2022-08-11T09:15:05;4.25;;;2.88;;
39896;SDS011;25567;48.276;14.242;2022-08-11T09:17:36;5.90;;;2.83;;
39896;SDS011;25567;48.276;14.242;2022-08-11T09:20:12;4.93;;;2.60;;
39896;SDS011;25567;48.276;14.242;2022-08-11T09:22:44;7.80;;;3.33;;
39896;SDS011;25567;48.276;14.242;2022-08-11T09:25:49;4.45;;;2.50;;
39896;SDS011;25567;48.276;14.242;2022-08-11T09:28:35;4.78;;;2.85;;
39896;SDS011;25567;48.276;14.242;2022-08-11T09:31:02;7.50;;;2.83;;
39896;SDS011;25567;48.276;14.242;2022-08-11T09:33:31;6.45;;;2.83;;
39896;SDS011;25567;48.276;14.242;2022-08-11T09:35:58;9.95;;;3.03;;
39896;SDS011;25567;48.276;14.242;2022-08-11T09:38:46;8.30;;;2.90;;
39896;SDS011;25567;48.276;14.242;2022-08-11T09:41:28;6.57;;;2.70;;
39896;SDS011;25567;48.276;14.242;2022-08-11T09:44:16;6.60;;;3.05;;
39896;SDS011;25567;48.276;14.242;2022-08-11T09:46:59;7.93;;;2.63;;
39896;SDS011;25567;48.276;14.242;2022-08-11T09:49:27;4.00;;;2.55;;
39896;SDS011;25567;48.276;14.242;2022-08-11T09:51:55;4.22;;;2.53;;
39896;SDS011;25567;48.276;14.242;2022-08-11T09:54:30;5.10;;;2.57;;
39896;SDS011;25567;48.276;14.242;2022-08-11T09:56:57;5.85;;;3.17;;
39896;SDS011;25567;48.276;14.242;2022-08-11T09:59:39;6.88;;;2.70;;
39896;SDS011;25567;48.276;14.242;2022-08-11T10:02:06;13.52;;;2.97;;
39896;SDS011;25567;48.276;14.242;2022-08-11T10:04:39;16.42;;;2.97;;
39896;SDS011;25567;48.276;14.242;2022-08-11T10:07:07;7.78;;;2.85;;
39896;SDS011;25567;48.276;14.242;2022-08-11T10:12:28;8.40;;;2.90;;
39896;SDS011;25567;48.276;14.242;2022-08-11T10:15:03;7.70;;;2.55;;
39896;SDS011;25567;48.276;14.242;2022-08-11T10:17:48;3.83;;;2.60;;
39896;SDS011;25567;48.276;14.242;2022-08-11T10:20:41;6.05;;;3.08;;
39896;SDS011;25567;48.276;14.242;2022-08-11T10:23:10;6.43;;;2.53;;
39896;SDS011;25567;48.276;14.242;2022-08-11T10:25:54;9.15;;;2.83;;
39896;SDS011;25567;48.276;14.242;2022-08-11T10:28:37;5.60;;;2.65;;
39896;SDS011;25567;48.276;14.242;2022-08-11T10:31:25;5.07;;;2.95;;
39896;SDS011;25567;48.276;14.242;2022-08-11T10:34:23;5.22;;;3.08;;
39896;SDS011;25567;48.276;14.242;2022-08-11T10:36:54;5.40;;;2.28;;
39896;SDS011;25567;48.276;14.242;2022-08-11T10:39:22;6.07;;;3.20;;
39896;SDS011;25567;48.276;14.242;2022-08-11T10:41:52;8.35;;;2.92;;
39896;SDS011;25567;48.276;14.242;2022-08-11T10:44:56;4.20;;;2.70;;
39896;SDS011;25567;48.276;14.242;2022-08-11T10:47:26;3.13;;;2.47;;
39896;SDS011;25567;48.276;14.242;2022-08-11T10:50:01;6.50;;;2.80;;
39896;SDS011;25567;48.276;14.242;2022-08-11T10:52:48;4.60;;;2.03;;
39896;SDS011;25567;48.276;14.242;2022-08-11T10:55:32;5.70;;;2.60;;
39896;SDS011;25567;48.276;14.242;2022-08-11T10:58:15;6.47;;;2.50;;
39896;SDS011;25567;48.276;14.242;2022-08-11T11:00:59;6.15;;;2.47;;
39896;SDS011;25567;48.276;14.242;2022-08-11T11:03:27;7.75;;;2.33;;
39896;SDS011;25567;48.276;14.242;2022-08-11T11:06:00;5.50;;;2.67;;
39896;SDS011;25567;48.276;14.242;2022-08-11T11:11:36;5.28;;;2.30;;
39896;SDS011;25567;48.276;14.242;2022-08-11T11:14:20;6.32;;;1.90;;
39896;SDS011;25567;48.276;14.242;2022-08-11T11:17:14;4.10;;;2.00;;
39896;SDS011;25567;48.276;14.242;2022-08-11T11:20:02;4.25;;;2.28;;
39896;SDS011;25567;48.276;14.242;2022-08-11T11:22:32;5.70;;;1.80;;
39896;SDS011;25567;48.276;14.242;2022-08-11T11:28:09;2.83;;;1.60;;
39896;SDS011;25567;48.276;14.242;2022-08-11T11:30:59;2.47;;;1.45;;
39896;SDS011;25567;48.276;14.242;2022-08-11T11:33:54;10.05;;;1.50;;
39896;SDS011;25567;48.276;14.242;2022-08-11T11:36:44;4.13;;;1.45;;
39896;SDS011;25567;48.276;14.242;2022-08-11T11:39:18;3.20;;;1.60;;
39896;SDS011;25567;48.276;14.242;2022-08-11T11:41:48;3.10;;;1.90;;
39896;SDS011;25567;48.276;14.242;2022-08-11T11:44:18;3.13;;;1.73;;
39896;SDS011;25567;48.276;14.242;2022-08-11T11:46:48;7.43;;;1.80;;
39896;SDS011;25567;48.276;14.242;2022-08-11T11:49:17;3.95;;;1.80;;
39896;SDS011;25567;48.276;14.242;2022-08-11T11:51:50;3.72;;;1.83;;
39896;SDS011;25567;48.276;14.242;2022-08-11T11:54:20;3.63;;;1.75;;
39896;SDS011;25567;48.276;14.242;2022-08-11T11:56:50;7.93;;;1.60;;
39896;SDS011;25567;48.276;14.242;2022-08-11T11:59:20;2.83;;;1.88;;
39896;SDS011;25567;48.276;14.242;2022-08-11T12:02:03;3.97;;;2.20;;
39896;SDS011;25567;48.276;14.242;2022-08-11T12:04:39;3.53;;;1.83;;
39896;SDS011;25567;48.276;14.242;2022-08-11T12:07:08;3.50;;;1.80;;
39896;SDS011;25567;48.276;14.242;2022-08-11T12:09:51;3.28;;;1.27;;
39896;SDS011;25567;48.276;14.242;2022-08-11T12:12:19;1.70;;;1.40;;
39896;SDS011;25567;48.276;14.242;2022-08-11T12:15:02;3.15;;;1.52;;
39896;SDS011;25567;48.276;14.242;2022-08-11T12:17:30;4.45;;;2.00;;
39896;SDS011;25567;48.276;14.242;2022-08-11T12:19:57;2.92;;;1.42;;
39896;SDS011;25567;48.276;14.242;2022-08-11T12:22:26;3.53;;;1.33;;
39896;SDS011;25567;48.276;14.242;2022-08-11T12:25:09;2.45;;;1.42;;
39896;SDS011;25567;48.276;14.242;2022-08-11T12:27:52;4.07;;;1.70;;
39896;SDS011;25567;48.276;14.242;2022-08-11T12:30:20;3.80;;;1.48;;
39896;SDS011;25567;48.276;14.242;2022-08-11T12:32:48;4.53;;;1.55;;
39896;SDS011;25567;48.276;14.242;2022-08-11T12:35:15;5.13;;;1.30;;
39896;SDS011;25567;48.276;14.242;2022-08-11T12:37:44;2.72;;;1.60;;
39896;SDS011;25567;48.276;14.242;2022-08-11T12:40:15;2.95;;;1.70;;
39896;SDS011;25567;48.276;14.242;2022-08-11T12:43:20;5.20;;;1.60;;
39896;SDS011;25567;48.276;14.242;2022-08-11T12:46:07;3.30;;;1.63;;
39896;SDS011;25567;48.276;14.242;2022-08-11T12:48:41;2.60;;;1.50;;
39896;SDS011;25567;48.276;14.242;2022-08-11T12:51:29;3.60;;;1.50;;
39896;SDS011;25567;48.276;14.242;2022-08-11T12:57:13;2.97;;;1.23;;
39896;SDS011;25567;48.276;14.242;2022-08-11T13:00:03;2.17;;;1.10;;
39896;SDS011;25567;48.276;14.242;2022-08-11T13:02:47;1.73;;;1.40;;
39896;SDS011;25567;48.276;14.242;2022-08-11T13:05:30;5.05;;;1.60;;
39896;SDS011;25567;48.276;14.242;2022-08-11T13:08:05;6.80;;;1.17;;
39896;SDS011;25567;48.276;14.242;2022-08-11T13:10:33;1.67;;;1.27;;
39896;SDS011;25567;48.276;14.242;2022-08-11T13:13:16;2.03;;;1.20;;
39896;SDS011;25567;48.276;14.242;2022-08-11T13:16:06;3.63;;;1.60;;
39896;SDS011;25567;48.276;14.242;2022-08-11T13:18:33;3.20;;;1.30;;
39896;SDS011;25567;48.276;14.242;2022-08-11T13:21:03;2.95;;;1.50;;
39896;SDS011;25567;48.276;14.242;2022-08-11T13:23:30;2.25;;;1.50;;
39896;SDS011;25567;48.276;14.242;2022-08-11T13:25:58;4.50;;;1.40;;
39896;SDS011;25567;48.276;14.242;2022-08-11T13:28:26;4.22;;;1.85;;
39896;SDS011;25567;48.276;14.242;2022-08-11T13:30:53;2.40;;;1.40;;
39896;SDS011;25567;48.276;14.242;2022-08-11T13:33:39;3.40;;;1.67;;
39896;SDS011;25567;48.276;14.242;2022-08-11T13:36:08;3.80;;;1.67;;
39896;SDS011;25567;48.276;14.242;2022-08-11T13:38:37;4.93;;;1.50;;
39896;SDS011;25567;48.276;14.242;2022-08-11T13:41:10;2.08;;;1.13;;
39896;SDS011;25567;48.276;14.242;2022-08-11T13:43:53;3.22;;;1.60;;
39896;SDS011;25567;48.276;14.242;2022-08-11T13:46:21;6.15;;;1.65;;
39896;SDS011;25567;48.276;14.242;2022-08-11T13:48:54;4.00;;;1.40;;
39896;SDS011;25567;48.276;14.242;2022-08-11T13:51:26;3.08;;;1.20;;
39896;SDS011;25567;48.276;14.242;2022-08-11T13:54:04;4.53;;;1.52;;
39896;SDS011;25567;48.276;14.242;2022-08-11T13:56:34;3.92;;;1.33;;
39896;SDS011;25567;48.276;14.242;2022-08-11T13:59:06;2.60;;;1.38;;
39896;SDS011;25567;48.276;14.242;2022-08-11T14:01:38;2.47;;;1.38;;
39896;SDS011;25567;48.276;14.242;2022-08-11T14:04:30;3.55;;;1.45;;
39896;SDS011;25567;48.276;14.242;2022-08-11T14:06:59;5.57;;;1.40;;
39896;SDS011;25567;48.276;14.242;2022-08-11T14:09:34;3.35;;;1.50;;
39896;SDS011;25567;48.276;14.242;2022-08-11T14:12:06;2.90;;;1.40;;
39896;SDS011;25567;48.276;14.242;2022-08-11T14:14:57;1.75;;;1.10;;
39896;SDS011;25567;48.276;14.242;2022-08-11T14:17:33;4.30;;;1.50;;
39896;SDS011;25567;48.276;14.242;2022-08-11T14:20:15;2.00;;;1.50;;
39896;SDS011;25567;48.276;14.242;2022-08-11T14:23:03;3.45;;;1.65;;
39896;SDS011;25567;48.276;14.242;2022-08-11T14:25:31;2.75;;;1.20;;
39896;SDS011;25567;48.276;14.242;2022-08-11T14:28:18;3.60;;;1.30;;
39896;SDS011;25567;48.276;14.242;2022-08-11T14:31:00;2.78;;;1.20;;
39896;SDS011;25567;48.276;14.242;2022-08-11T14:33:29;2.75;;;1.50;;
39896;SDS011;25567;48.276;14.242;2022-08-11T14:36:20;3.20;;;1.60;;
39896;SDS011;25567;48.276;14.242;2022-08-11T14:38:49;4.65;;;1.50;;
39896;SDS011;25567;48.276;14.242;2022-08-11T14:41:16;4.72;;;1.70;;
39896;SDS011;25567;48.276;14.242;2022-08-11T14:43:59;3.00;;;1.50;;
39896;SDS011;25567;48.276;14.242;2022-08-11T14:46:42;7.25;;;1.77;;
39896;SDS011;25567;48.276;14.242;2022-08-11T14:49:24;3.95;;;1.50;;
39896;SDS011;25567;48.276;14.242;2022-08-11T14:51:52;2.35;;;1.40;;
39896;SDS011;25567;48.276;14.242;2022-08-11T14:54:23;3.65;;;1.25;;
39896;SDS011;25567;48.276;14.242;2022-08-11T14:57:07;5.57;;;1.50;;
39896;SDS011;25567;48.276;14.242;2022-08-11T14:59:35;6.38;;;1.70;;
39896;SDS011;25567;48.276;14.242;2022-08-11T15:02:03;4.57;;;1.83;;
39896;SDS011;25567;48.276;14.242;2022-08-11T15:04:46;5.18;;;1.85;;
39896;SDS011;25567;48.276;14.242;2022-08-11T15:07:13;5.82;;;1.67;;
39896;SDS011;25567;48.276;14.242;2022-08-11T15:09:42;4.10;;;1.70;;
39896;SDS011;25567;48.276;14.242;2022-08-11T15:12:30;1.77;;;1.20;;
39896;SDS011;25567;48.276;14.242;2022-08-11T15:14:59;5.75;;;1.65;;
39896;SDS011;25567;48.276;14.242;2022-08-11T15:17:42;4.55;;;1.42;;
39896;SDS011;25567;48.276;14.242;2022-08-11T15:20:15;2.22;;;1.38;;
39896;SDS011;25567;48.276;14.242;2022-08-11T15:22:58;1.83;;;1.23;;
39896;SDS011;25567;48.276;14.242;2022-08-11T15:25:42;3.70;;;1.20;;
39896;SDS011;25567;48.276;14.242;2022-08-11T15:28:11;1.50;;;1.17;;
39896;SDS011;25567;48.276;14.242;2022-08-11T15:30:56;2.20;;;1.50;;
39896;SDS011;25567;48.276;14.242;2022-08-11T15:33:40;5.88;;;1.60;;
39896;SDS011;25567;48.276;14.242;2022-08-11T15:36:24;3.65;;;1.60;;
39896;SDS011;25567;48.276;14.242;2022-08-11T15:39:18;3.40;;;1.40;;
39896;SDS011;25567;48.276;14.242;2022-08-11T15:41:55;3.42;;;1.30;;
39896;SDS011;25567;48.276;14.242;2022-08-11T15:44:50;3.67;;;1.48;;
39896;SDS011;25567;48.276;14.242;2022-08-11T15:47:37;3.40;;;1.42;;
39896;SDS011;25567;48.276;14.242;2022-08-11T15:50:13;3.00;;;1.48;;
39896;SDS011;25567;48.276;14.242;2022-08-11T15:52:48;2.92;;;1.40;;
39896;SDS011;25567;48.276;14.242;2022-08-11T15:55:23;4.43;;;1.35;;
39896;SDS011;25567;48.276;14.242;2022-08-11T15:57:52;4.15;;;1.65;;
39896;SDS011;25567;48.276;14.242;2022-08-11T16:00:35;4.35;;;1.10;;
39896;SDS011;25567;48.276;14.242;2022-08-11T16:03:35;3.03;;;1.73;;
39896;SDS011;25567;48.276;14.242;2022-08-11T16:06:34;2.60;;;1.48;;
39896;SDS011;25567;48.276;14.242;2022-08-11T16:09:13;5.07;;;1.60;;
39896;SDS011;25567;48.276;14.242;2022-08-11T16:11:44;2.63;;;1.27;;
39896;SDS011;25567;48.276;14.242;2022-08-11T16:14:13;2.72;;;1.40;;
39896;SDS011;25567;48.276;14.242;2022-08-11T16:16:58;2.63;;;1.70;;
39896;SDS011;25567;48.276;14.242;2022-08-11T16:19:26;4.22;;;1.50;;
39896;SDS011;25567;48.276;14.242;2022-08-11T16:22:00;4.88;;;1.83;;
39896;SDS011;25567;48.276;14.242;2022-08-11T16:24:33;9.60;;;1.35;;
39896;SDS011;25567;48.276;14.242;2022-08-11T16:27:23;2.10;;;1.30;;
39896;SDS011;25567;48.276;14.242;2022-08-11T16:29:51;3.72;;;1.42;;
39896;SDS011;25567;48.276;14.242;2022-08-11T16:32:20;4.95;;;1.48;;
39896;SDS011;25567;48.276;14.242;2022-08-11T16:34:53;3.90;;;2.25;;
39896;SDS011;25567;48.276;14.242;2022-08-11T16:37:38;2.50;;;1.40;;
39896;SDS011;25567;48.276;14.242;2022-08-11T16:40:22;3.10;;;1.50;;
39896;SDS011;25567;48.276;14.242;2022-08-11T16:42:49;2.30;;;1.50;;
39896;SDS011;25567;48.276;14.242;2022-08-11T16:45:37;3.50;;;1.30;;
39896;SDS011;25567;48.276;14.242;2022-08-11T16:48:21;2.28;;;1.42;;
39896;SDS011;25567;48.276;14.242;2022-08-11T16:51:04;2.78;;;1.50;;
39896;SDS011;25567;48.276;14.242;2022-08-11T16:53:32;3.92;;;1.48;;
39896;SDS011;25567;48.276;14.242;2022-08-11T16:56:20;1.42;;;1.33;;
39896;SDS011;25567;48.276;14.242;2022-08-11T16:58:55;1.73;;;1.35;;
39896;SDS011;25567;48.276;14.242;2022-08-11T17:01:50;3.30;;;1.20;;
39896;SDS011;25567;48.276;14.242;2022-08-11T17:04:20;1.58;;;1.35;;
39896;SDS011;25567;48.276;14.242;2022-08-11T17:07:10;3.50;;;1.20;;
39896;SDS011;25567;48.276;14.242;2022-08-11T17:10:10;6.88;;;1.30;;
39896;SDS011;25567;48.276;14.242;2022-08-11T17:13:18;3.70;;;1.70;;
39896;SDS011;25567;48.276;14.242;2022-08-11T17:15:51;1.38;;;1.27;;
39896;SDS011;25567;48.276;14.242;2022-08-11T17:18:42;2.45;;;1.50;;
39896;SDS011;25567;48.276;14.242;2022-08-11T17:21:37;3.65;;;1.52;;
39896;SDS011;25567;48.276;14.242;2022-08-11T17:24:26;4.72;;;1.55;;
39896;SDS011;25567;48.276;14.242;2022-08-11T17:26:56;3.45;;;1.45;;
39896;SDS011;25567;48.276;14.242;2022-08-11T17:31:54;2.10;;;1.58;;
39896;SDS011;25567;48.276;14.242;2022-08-11T17:34:37;4.47;;;1.80;;
39896;SDS011;25567;48.276;14.242;2022-08-11T17:37:22;2.63;;;1.50;;
39896;SDS011;25567;48.276;14.242;2022-08-11T17:39:50;2.13;;;1.42;;
39896;SDS011;25567;48.276;14.242;2022-08-11T17:42:19;2.33;;;1.17;;
39896;SDS011;25567;48.276;14.242;2022-08-11T17:45:02;5.05;;;1.60;;
39896;SDS011;25567;48.276;14.242;2022-08-11T17:47:46;3.28;;;1.85;;
39896;SDS011;25567;48.276;14.242;2022-08-11T17:50:29;7.50;;;1.50;;
39896;SDS011;25567;48.276;14.242;2022-08-11T17:52:56;5.95;;;1.75;;
39896;SDS011;25567;48.276;14.242;2022-08-11T17:55:40;2.22;;;1.42;;
39896;SDS011;25567;48.276;14.242;2022-08-11T17:58:23;4.07;;;1.67;;
39896;SDS011;25567;48.276;14.242;2022-08-11T18:01:11;2.88;;;1.55;;
39896;SDS011;25567;48.276;14.242;2022-08-11T18:03:39;6.82;;;1.70;;
39896;SDS011;25567;48.276;14.242;2022-08-11T18:06:23;6.20;;;1.60;;
39896;SDS011;25567;48.276;14.242;2022-08-11T18:09:00;2.72;;;1.70;;
39896;SDS011;25567;48.276;14.242;2022-08-11T18:11:46;5.65;;;1.65;;
39896;SDS011;25567;48.276;14.242;2022-08-11T18:14:37;2.28;;;1.55;;
39896;SDS011;25567;48.276;14.242;2022-08-11T18:17:21;2.17;;;1.58;;
39896;SDS011;25567;48.276;14.242;2022-08-11T18:20:03;3.97;;;1.52;;
39896;SDS011;25567;48.276;14.242;2022-08-11T18:22:47;5.68;;;1.77;;
39896;SDS011;25567;48.276;14.242;2022-08-11T18:25:31;3.25;;;1.65;;
39896;SDS011;25567;48.276;14.242;2022-08-11T18:28:16;7.10;;;1.70;;
39896;SDS011;25567;48.276;14.242;2022-08-11T18:31:04;2.85;;;1.42;;
39896;SDS011;25567;48.276;14.242;2022-08-11T18:33:49;5.50;;;1.77;;
39896;SDS011;25567;48.276;14.242;2022-08-11T18:36:37;5.18;;;1.52;;
39896;SDS011;25567;48.276;14.242;2022-08-11T18:39:22;3.70;;;1.67;;
39896;SDS011;25567;48.276;14.242;2022-08-11T18:42:07;4.43;;;1.70;;
39896;SDS011;25567;48.276;14.242;2022-08-11T18:44:58;3.83;;;1.60;;
39896;SDS011;25567;48.276;14.242;2022-08-11T18:47:42;5.60;;;1.80;;
39896;SDS011;25567;48.276;14.242;2022-08-11T18:50:27;3.92;;;1.40;;